Time;durP1;ratioP1;P1;durP2;ratioP2;P2;SDS_P1;SDS_P2;PMS_P1;PMS_P2;Temp;Humidity;BMP_temperature;BMP_pressure;BME280_temperature;BME280_humidity;BME280_pressure;Samples;Min_cycle;Max_cycle;Signal;HPM_P1;HPM_P2
2023/01/10 00:00:51;;;;;;;21.80;3.45;;;;;;;;;;5096905;28;20115;-66
2023/01/10 00:03:17;;;;;;;27.33;4.07;;;;;;;;;;5097692;28;20399;-66
2023/01/10 00:05:44;;;;;;;33.50;5.00;;;;;;;;;;5095620;28;20052;-67
2023/01/10 00:08:13;;;;;;;20.52;3.63;;;;;;;;;;5096743;28;20130;-67
2023/01/10 00:10:40;;;;;;;27.80;4.00;;;;;;;;;;5097463;28;20107;-67
2023/01/10 00:13:22;;;;;;;24.13;4.22;;;;;;;;;;5097251;28;20167;-66
2023/01/10 00:15:48;;;;;;;25.52;4.40;;;;;;;;;;5096800;28;21485;-66
2023/01/10 00:18:14;;;;;;;31.00;3.90;;;;;;;;;;5099814;28;20044;-66
2023/01/10 00:20:43;;;;;;;23.00;3.50;;;;;;;;;;5098679;28;20035;-66
2023/01/10 00:23:09;;;;;;;18.25;3.22;;;;;;;;;;5099130;28;20039;-66
2023/01/10 00:25:36;;;;;;;28.10;3.75;;;;;;;;;;5099838;28;20032;-67
2023/01/10 00:28:09;;;;;;;26.17;3.85;;;;;;;;;;5097568;27;20079;-67
2023/01/10 00:30:38;;;;;;;13.88;2.75;;;;;;;;;;5100386;28;20041;-67
2023/01/10 00:33:04;;;;;;;23.00;3.28;;;;;;;;;;5099668;28;20101;-67
2023/01/10 00:35:30;;;;;;;29.13;4.38;;;;;;;;;;5094782;28;20470;-66
2023/01/10 00:38:01;;;;;;;25.08;3.28;;;;;;;;;;5094160;28;20084;-67
2023/01/10 00:40:27;;;;;;;23.20;3.53;;;;;;;;;;5094802;28;20083;-67
2023/01/10 00:45:38;;;;;;;31.50;4.97;;;;;;;;;;5098067;28;20052;-67
2023/01/10 00:48:04;;;;;;;28.10;4.95;;;;;;;;;;5098737;28;20051;-67
2023/01/10 00:50:30;;;;;;;22.00;4.22;;;;;;;;;;5099421;28;20044;-66
2023/01/10 00:52:56;;;;;;;27.05;3.55;;;;;;;;;;5098689;28;20096;-67
2023/01/10 00:55:22;;;;;;;26.10;4.30;;;;;;;;;;5101546;28;20173;-67
2023/01/10 00:57:48;;;;;;;21.02;4.40;;;;;;;;;;5103635;28;20047;-67
2023/01/10 01:00:15;;;;;;;33.38;5.70;;;;;;;;;;5103580;28;20043;-67
2023/01/10 01:02:41;;;;;;;26.40;3.95;;;;;;;;;;5100735;28;20126;-66
2023/01/10 01:05:07;;;;;;;34.83;4.70;;;;;;;;;;5098741;28;20040;-66
2023/01/10 01:07:33;;;;;;;25.50;3.65;;;;;;;;;;5099148;27;20573;-66
2023/01/10 01:12:45;;;;;;;35.72;5.28;;;;;;;;;;5099560;28;20071;-66
2023/01/10 01:15:11;;;;;;;29.70;3.70;;;;;;;;;;5094746;28;20044;-66
2023/01/10 01:17:38;;;;;;;40.05;7.82;;;;;;;;;;5094406;28;20059;-66
2023/01/10 01:20:04;;;;;;;25.77;4.97;;;;;;;;;;5098165;28;20062;-66
2023/01/10 01:22:30;;;;;;;25.67;4.60;;;;;;;;;;5098237;28;20046;-67
2023/01/10 01:24:56;;;;;;;27.20;4.07;;;;;;;;;;5097012;28;20447;-66
2023/01/10 01:27:22;;;;;;;31.15;5.43;;;;;;;;;;5099997;27;21181;-66
2023/01/10 01:29:49;;;;;;;19.95;4.60;;;;;;;;;;5098454;28;20082;-67
2023/01/10 01:32:15;;;;;;;19.42;2.80;;;;;;;;;;5100562;28;20056;-66
2023/01/10 01:34:41;;;;;;;18.67;2.60;;;;;;;;;;5098022;28;20035;-67
2023/01/10 01:37:07;;;;;;;15.13;2.25;;;;;;;;;;5095874;28;20039;-67
2023/01/10 01:39:33;;;;;;;10.45;2.15;;;;;;;;;;5097968;28;20044;-67
2023/01/10 01:42:00;;;;;;;10.93;2.00;;;;;;;;;;5085174;28;20068;-66
2023/01/10 01:44:31;;;;;;;9.63;1.98;;;;;;;;;;5078297;28;20486;-66
2023/01/10 01:47:06;;;;;;;9.30;1.60;;;;;;;;;;5077105;28;20040;-66
2023/01/10 01:49:34;;;;;;;12.45;1.83;;;;;;;;;;5077870;28;20060;-67
2023/01/10 01:52:02;;;;;;;12.70;2.35;;;;;;;;;;5057454;28;22119;-67
2023/01/10 01:54:29;;;;;;;12.00;2.08;;;;;;;;;;5077627;28;20456;-67
2023/01/10 01:56:59;;;;;;;12.23;1.90;;;;;;;;;;5076559;28;20052;-67
2023/01/10 01:59:28;;;;;;;14.20;1.80;;;;;;;;;;5077218;28;20036;-67
2023/01/10 02:01:57;;;;;;;14.88;2.05;;;;;;;;;;5080423;28;20047;-67
2023/01/10 02:04:26;;;;;;;15.07;1.88;;;;;;;;;;5077797;28;20056;-67
2023/01/10 02:06:54;;;;;;;12.02;2.63;;;;;;;;;;5077316;28;20046;-67
2023/01/10 02:09:32;;;;;;;17.67;2.72;;;;;;;;;;5076228;28;20044;-67
2023/01/10 02:11:59;;;;;;;18.10;2.30;;;;;;;;;;5078674;28;20043;-67
2023/01/10 02:14:26;;;;;;;18.45;2.97;;;;;;;;;;5076118;28;20050;-67
2023/01/10 02:16:52;;;;;;;16.73;2.85;;;;;;;;;;5078534;28;20510;-67
2023/01/10 02:19:36;;;;;;;19.63;2.70;;;;;;;;;;5077599;28;21199;-67
2023/01/10 02:22:17;;;;;;;25.30;3.92;;;;;;;;;;5076898;28;20068;-67
2023/01/10 02:24:53;;;;;;;25.00;3.28;;;;;;;;;;5057099;28;20054;-67
2023/01/10 02:27:22;;;;;;;18.63;2.97;;;;;;;;;;5058692;28;20044;-67
2023/01/10 02:30:16;;;;;;;18.70;3.65;;;;;;;;;;5077783;28;20055;-67
2023/01/10 02:32:45;;;;;;;20.38;3.78;;;;;;;;;;5075157;28;20040;-67
2023/01/10 02:35:23;;;;;;;26.38;4.05;;;;;;;;;;5075251;28;20074;-67
2023/01/10 02:37:52;;;;;;;21.90;3.13;;;;;;;;;;5075538;28;20044;-67
2023/01/10 02:40:22;;;;;;;19.20;3.40;;;;;;;;;;5076572;28;20043;-67
2023/01/10 02:42:52;;;;;;;23.33;3.58;;;;;;;;;;5097977;28;20044;-67
2023/01/10 02:45:36;;;;;;;22.65;3.63;;;;;;;;;;5096362;28;20051;-67
2023/01/10 02:48:03;;;;;;;16.17;3.53;;;;;;;;;;5097860;28;20124;-67
2023/01/10 02:50:29;;;;;;;20.80;3.38;;;;;;;;;;5096493;28;20043;-67
2023/01/10 02:53:00;;;;;;;20.02;3.05;;;;;;;;;;5092633;28;20442;-67
2023/01/10 02:55:36;;;;;;;34.42;3.72;;;;;;;;;;5096985;28;20035;-67
2023/01/10 02:58:10;;;;;;;35.90;4.82;;;;;;;;;;5099303;28;20135;-66
2023/01/10 03:00:43;;;;;;;23.05;4.40;;;;;;;;;;5095711;28;20616;-66
2023/01/10 03:03:26;;;;;;;22.13;3.17;;;;;;;;;;5096651;28;20044;-66
2023/01/10 03:06:07;;;;;;;18.67;2.60;;;;;;;;;;5096844;28;20044;-67
2023/01/10 03:08:37;;;;;;;15.23;3.03;;;;;;;;;;5091526;28;20047;-67
2023/01/10 03:11:05;;;;;;;14.63;2.92;;;;;;;;;;5090876;28;20101;-66
2023/01/10 03:13:36;;;;;;;16.13;3.15;;;;;;;;;;5093942;28;20605;-67
2023/01/10 03:16:03;;;;;;;18.58;3.30;;;;;;;;;;5091882;28;20419;-67
2023/01/10 03:18:35;;;;;;;23.92;5.05;;;;;;;;;;5095770;28;20126;-67
2023/01/10 03:21:04;;;;;;;17.02;3.22;;;;;;;;;;5093647;28;20375;-67
2023/01/10 03:23:32;;;;;;;17.25;3.80;;;;;;;;;;5095522;28;20082;-67
2023/01/10 03:25:58;;;;;;;21.42;3.78;;;;;;;;;;5076057;28;20062;-67
2023/01/10 03:28:27;;;;;;;26.42;4.68;;;;;;;;;;5098092;28;20394;-67
2023/01/10 03:30:57;;;;;;;27.15;4.35;;;;;;;;;;5078775;28;20059;-67
2023/01/10 03:33:25;;;;;;;32.03;5.55;;;;;;;;;;5096068;28;20043;-67
2023/01/10 03:36:04;;;;;;;29.48;6.15;;;;;;;;;;5098058;28;20035;-67
2023/01/10 03:38:37;;;;;;;43.78;6.63;;;;;;;;;;5090198;28;20060;-67
2023/01/10 03:41:10;;;;;;;36.45;6.20;;;;;;;;;;5093942;28;20055;-67
2023/01/10 03:46:36;;;;;;;38.70;6.05;;;;;;;;;;5100089;28;20060;-67
2023/01/10 03:49:05;;;;;;;39.40;5.85;;;;;;;;;;5101413;28;21515;-67
2023/01/10 03:51:31;;;;;;;45.25;7.07;;;;;;;;;;5100101;27;20118;-67
2023/01/10 03:54:00;;;;;;;34.05;5.22;;;;;;;;;;5100953;28;20145;-67
2023/01/10 03:56:26;;;;;;;21.17;4.68;;;;;;;;;;5098716;28;20122;-67
2023/01/10 03:58:53;;;;;;;38.97;5.30;;;;;;;;;;5094459;28;20509;-67
2023/01/10 04:01:19;;;;;;;32.95;4.97;;;;;;;;;;5096715;28;20038;-67
2023/01/10 04:03:45;;;;;;;24.48;4.00;;;;;;;;;;5100150;28;20035;-67
2023/01/10 04:06:11;;;;;;;32.35;5.50;;;;;;;;;;5099776;28;20130;-67
2023/01/10 04:08:37;;;;;;;33.00;6.45;;;;;;;;;;5099275;28;20728;-67
2023/01/10 04:11:04;;;;;;;30.48;4.25;;;;;;;;;;5100659;28;20132;-67
2023/01/10 04:13:30;;;;;;;28.40;4.70;;;;;;;;;;5097052;28;20204;-67
2023/01/10 04:15:58;;;;;;;35.25;6.53;;;;;;;;;;5099716;28;20426;-67
2023/01/10 04:18:25;;;;;;;32.63;5.55;;;;;;;;;;5100710;28;20166;-67
2023/01/10 04:20:51;;;;;;;28.90;5.05;;;;;;;;;;5096428;28;20050;-67
2023/01/10 04:23:17;;;;;;;31.92;5.22;;;;;;;;;;5095592;28;20145;-67
2023/01/10 04:25:46;;;;;;;24.30;5.30;;;;;;;;;;5099910;28;20490;-67
2023/01/10 04:28:12;;;;;;;20.98;4.63;;;;;;;;;;5090475;28;20677;-67
2023/01/10 04:30:38;;;;;;;25.67;4.63;;;;;;;;;;5097114;28;20050;-67
2023/01/10 04:33:06;;;;;;;32.08;4.35;;;;;;;;;;5095555;28;20054;-67
2023/01/10 04:35:32;;;;;;;25.63;4.00;;;;;;;;;;5097184;28;20142;-67
2023/01/10 04:37:58;;;;;;;16.70;2.97;;;;;;;;;;5101002;28;20472;-67
2023/01/10 04:40:24;;;;;;;29.23;3.90;;;;;;;;;;5095784;28;20035;-67
2023/01/10 04:42:50;;;;;;;18.88;3.35;;;;;;;;;;5101210;28;20047;-67
2023/01/10 04:45:19;;;;;;;24.75;4.30;;;;;;;;;;5096442;28;20042;-67
2023/01/10 04:47:49;;;;;;;33.47;4.97;;;;;;;;;;5104905;28;20059;-67
2023/01/10 04:50:16;;;;;;;27.85;4.78;;;;;;;;;;5096933;28;20043;-67
2023/01/10 04:52:42;;;;;;;29.60;4.35;;;;;;;;;;5099497;28;20039;-67
2023/01/10 04:55:09;;;;;;;33.72;5.18;;;;;;;;;;5097314;27;20082;-67
2023/01/10 04:57:35;;;;;;;30.48;4.97;;;;;;;;;;5097140;28;20771;-67
2023/01/10 05:00:01;;;;;;;30.48;4.85;;;;;;;;;;5100594;28;20402;-67
2023/01/10 05:02:27;;;;;;;36.38;6.03;;;;;;;;;;5097751;27;20487;-67
2023/01/10 05:04:53;;;;;;;31.60;5.85;;;;;;;;;;5099189;28;20572;-67
2023/01/10 05:07:19;;;;;;;38.65;5.82;;;;;;;;;;5098737;28;20039;-67
2023/01/10 05:09:46;;;;;;;37.63;5.93;;;;;;;;;;5100524;28;20047;-67
2023/01/10 05:12:12;;;;;;;46.47;6.60;;;;;;;;;;5099761;28;20551;-66
2023/01/10 05:14:39;;;;;;;32.78;6.40;;;;;;;;;;5101809;28;20092;-67
2023/01/10 05:17:05;;;;;;;30.98;5.40;;;;;;;;;;5098295;28;20124;-67
2023/01/10 05:19:31;;;;;;;23.13;4.43;;;;;;;;;;5098949;28;20039;-67
2023/01/10 05:21:57;;;;;;;24.38;3.78;;;;;;;;;;5098954;28;20051;-67
2023/01/10 05:24:23;;;;;;;18.65;3.08;;;;;;;;;;5092001;28;20440;-67
2023/01/10 05:26:49;;;;;;;23.58;3.53;;;;;;;;;;5099266;28;20556;-67
2023/01/10 05:29:15;;;;;;;21.08;3.70;;;;;;;;;;5094760;28;20487;-67
2023/01/10 05:31:42;;;;;;;21.73;2.83;;;;;;;;;;5100261;28;20508;-67
2023/01/10 05:34:11;;;;;;;16.70;2.63;;;;;;;;;;5100084;27;20039;-66
2023/01/10 05:36:37;;;;;;;19.35;3.30;;;;;;;;;;5098308;28;20106;-66
2023/01/10 05:39:03;;;;;;;13.90;2.22;;;;;;;;;;5098169;28;20048;-66
2023/01/10 05:41:29;;;;;;;12.55;2.17;;;;;;;;;;5097886;27;20499;-67
2023/01/10 05:43:56;;;;;;;13.60;2.47;;;;;;;;;;5102559;27;20487;-67
2023/01/10 05:46:22;;;;;;;12.27;2.13;;;;;;;;;;5102537;28;20518;-67
2023/01/10 05:48:48;;;;;;;9.77;1.90;;;;;;;;;;5102223;28;20039;-66
2023/01/10 05:51:15;;;;;;;14.80;2.30;;;;;;;;;;5101774;27;20689;-67
2023/01/10 05:53:42;;;;;;;11.35;1.98;;;;;;;;;;5101263;28;20039;-67
2023/01/10 05:56:09;;;;;;;22.63;3.33;;;;;;;;;;5097487;28;20043;-67
2023/01/10 05:58:35;;;;;;;20.38;2.88;;;;;;;;;;5095734;28;20039;-67
2023/01/10 06:01:01;;;;;;;25.67;4.25;;;;;;;;;;5102277;28;20092;-67
2023/01/10 06:03:27;;;;;;;18.70;3.42;;;;;;;;;;5102239;28;20486;-67
2023/01/10 06:05:54;;;;;;;22.67;3.47;;;;;;;;;;5102217;28;20047;-66
2023/01/10 06:08:21;;;;;;;25.13;3.67;;;;;;;;;;5095963;28;20040;-66
2023/01/10 06:10:47;;;;;;;30.73;4.25;;;;;;;;;;5105739;28;20052;-66
2023/01/10 06:13:13;;;;;;;20.85;3.05;;;;;;;;;;5105977;28;20139;-67
2023/01/10 06:15:39;;;;;;;19.50;2.75;;;;;;;;;;5100297;27;20046;-67
2023/01/10 06:18:06;;;;;;;25.00;3.22;;;;;;;;;;5094083;28;20432;-66
2023/01/10 06:20:32;;;;;;;16.63;2.90;;;;;;;;;;5103745;27;20058;-66
2023/01/10 06:23:01;;;;;;;27.17;3.45;;;;;;;;;;5105480;28;20040;-67
2023/01/10 06:25:28;;;;;;;17.58;2.92;;;;;;;;;;5103436;28;20044;-66
2023/01/10 06:27:54;;;;;;;24.38;3.47;;;;;;;;;;5098765;28;20109;-67
2023/01/10 06:30:20;;;;;;;19.95;3.10;;;;;;;;;;5100604;28;20040;-66
2023/01/10 06:32:46;;;;;;;22.33;3.00;;;;;;;;;;5108891;28;20831;-66
2023/01/10 06:35:12;;;;;;;17.58;3.10;;;;;;;;;;5109673;28;20467;-67
2023/01/10 06:37:38;;;;;;;26.00;3.45;;;;;;;;;;5109678;28;20138;-66
2023/01/10 06:40:05;;;;;;;19.70;3.70;;;;;;;;;;5099912;28;20490;-66
2023/01/10 06:42:31;;;;;;;17.83;3.58;;;;;;;;;;5089202;28;20054;-66
2023/01/10 06:44:57;;;;;;;18.42;3.05;;;;;;;;;;5088060;28;20066;-66
2023/01/10 06:47:24;;;;;;;20.45;3.42;;;;;;;;;;5070392;28;20075;-67
2023/01/10 06:49:50;;;;;;;27.02;3.70;;;;;;;;;;5088661;28;20052;-67
2023/01/10 06:52:16;;;;;;;25.23;3.97;;;;;;;;;;5088605;28;20048;-67
2023/01/10 06:54:43;;;;;;;31.77;3.90;;;;;;;;;;5088251;28;20361;-66
2023/01/10 06:57:09;;;;;;;23.90;4.05;;;;;;;;;;5087034;28;20070;-66
2023/01/10 06:59:35;;;;;;;23.88;4.00;;;;;;;;;;5084411;28;20039;-66
2023/01/10 07:02:01;;;;;;;27.13;4.88;;;;;;;;;;5066823;28;20078;-66
2023/01/10 07:04:27;;;;;;;34.83;6.05;;;;;;;;;;5086267;28;20044;-66
2023/01/10 07:06:53;;;;;;;27.77;5.35;;;;;;;;;;5086514;28;20135;-66
2023/01/10 07:09:20;;;;;;;42.67;5.65;;;;;;;;;;5085757;28;20094;-66
2023/01/10 07:11:46;;;;;;;54.92;7.40;;;;;;;;;;5085127;28;20052;-66
2023/01/10 07:14:12;;;;;;;43.25;6.90;;;;;;;;;;5085884;28;20050;-66
2023/01/10 07:16:38;;;;;;;39.90;6.97;;;;;;;;;;5082286;28;20036;-66
2023/01/10 07:19:04;;;;;;;46.88;7.93;;;;;;;;;;5085554;28;20040;-66
2023/01/10 07:21:30;;;;;;;43.65;6.68;;;;;;;;;;5085192;28;20064;-66
2023/01/10 07:23:56;;;;;;;30.25;7.07;;;;;;;;;;5088496;28;20105;-66
2023/01/10 07:26:23;;;;;;;41.65;6.57;;;;;;;;;;5089810;28;20044;-66
2023/01/10 07:28:49;;;;;;;30.80;6.30;;;;;;;;;;5089021;28;20052;-66
2023/01/10 07:31:16;;;;;;;43.10;6.65;;;;;;;;;;5069817;28;20048;-66
2023/01/10 07:33:43;;;;;;;47.67;7.00;;;;;;;;;;5088043;28;20680;-66
2023/01/10 07:36:09;;;;;;;39.00;6.72;;;;;;;;;;5070063;28;20044;-66
2023/01/10 07:38:36;;;;;;;38.72;6.55;;;;;;;;;;5071480;28;20052;-66
2023/01/10 07:41:02;;;;;;;47.00;7.72;;;;;;;;;;5081100;28;20100;-66
2023/01/10 07:43:29;;;;;;;45.72;6.97;;;;;;;;;;5099289;28;20184;-66
2023/01/10 07:45:57;;;;;;;34.58;6.93;;;;;;;;;;5101782;28;20039;-66
2023/01/10 07:48:24;;;;;;;49.58;8.77;;;;;;;;;;5109710;28;20368;-66
2023/01/10 07:50:50;;;;;;;61.70;6.80;;;;;;;;;;5108508;28;20048;-66
2023/01/10 07:53:16;;;;;;;49.40;7.68;;;;;;;;;;5109555;28;20032;-66
2023/01/10 07:55:44;;;;;;;48.65;6.85;;;;;;;;;;5109622;28;20043;-66
2023/01/10 07:58:11;;;;;;;50.70;6.45;;;;;;;;;;5108228;28;20040;-66
2023/01/10 08:00:37;;;;;;;50.15;7.03;;;;;;;;;;5109625;28;20106;-66
2023/01/10 08:03:04;;;;;;;42.92;6.65;;;;;;;;;;5085988;28;20058;-66
2023/01/10 08:05:31;;;;;;;51.95;7.22;;;;;;;;;;5097239;28;20123;-66
2023/01/10 08:07:58;;;;;;;48.20;7.07;;;;;;;;;;5109213;28;20058;-66
2023/01/10 08:10:25;;;;;;;32.17;6.53;;;;;;;;;;5102205;28;20071;-66
2023/01/10 08:12:51;;;;;;;35.58;5.60;;;;;;;;;;5108267;28;20040;-66
2023/01/10 08:15:17;;;;;;;29.80;5.50;;;;;;;;;;5108977;28;20498;-66
2023/01/10 08:17:44;;;;;;;29.00;5.60;;;;;;;;;;5109359;28;20048;-66
2023/01/10 08:20:10;;;;;;;36.72;6.97;;;;;;;;;;5108510;28;20114;-66
2023/01/10 08:22:36;;;;;;;37.70;7.55;;;;;;;;;;5109707;28;20044;-67
2023/01/10 08:25:02;;;;;;;31.73;6.20;;;;;;;;;;5108672;28;20050;-67
2023/01/10 08:27:29;;;;;;;35.75;5.50;;;;;;;;;;5109149;28;20084;-68
2023/01/10 08:29:55;;;;;;;29.25;5.43;;;;;;;;;;5109410;28;20048;-68
2023/01/10 08:32:21;;;;;;;47.35;6.07;;;;;;;;;;5083864;28;20055;-67
2023/01/10 08:34:47;;;;;;;41.58;6.50;;;;;;;;;;5107563;28;20054;-67
2023/01/10 08:37:13;;;;;;;39.30;7.68;;;;;;;;;;5109615;28;20046;-66
2023/01/10 08:39:40;;;;;;;28.23;6.10;;;;;;;;;;5107084;28;20468;-66
2023/01/10 08:42:06;;;;;;;31.23;5.65;;;;;;;;;;5107886;28;20051;-65
2023/01/10 08:44:32;;;;;;;31.27;5.32;;;;;;;;;;5107041;28;20111;-66
2023/01/10 08:46:58;;;;;;;34.08;6.75;;;;;;;;;;5107739;28;20039;-65
2023/01/10 08:49:24;;;;;;;39.38;6.38;;;;;;;;;;5108733;28;20054;-66
2023/01/10 08:51:50;;;;;;;34.15;6.55;;;;;;;;;;5107671;28;20412;-66
2023/01/10 08:54:17;;;;;;;36.65;5.65;;;;;;;;;;5107585;28;20513;-66
2023/01/10 08:56:43;;;;;;;36.85;6.10;;;;;;;;;;5108269;28;20066;-66
2023/01/10 08:59:09;;;;;;;26.85;5.72;;;;;;;;;;5106127;28;20490;-65
2023/01/10 09:01:35;;;;;;;34.55;6.20;;;;;;;;;;5106853;28;20385;-66
2023/01/10 09:04:01;;;;;;;30.25;5.75;;;;;;;;;;5108161;28;20040;-66
2023/01/10 09:06:28;;;;;;;29.55;5.22;;;;;;;;;;5108447;28;20058;-66
2023/01/10 09:08:54;;;;;;;24.17;4.80;;;;;;;;;;5096953;28;20047;-66
2023/01/10 09:11:20;;;;;;;35.72;6.38;;;;;;;;;;5107940;28;20048;-66
2023/01/10 09:13:49;;;;;;;35.20;6.60;;;;;;;;;;5106764;28;20486;-65
2023/01/10 09:16:15;;;;;;;27.35;5.35;;;;;;;;;;5106418;28;20517;-65
2023/01/10 09:18:41;;;;;;;18.77;4.72;;;;;;;;;;5108709;28;20082;-66
2023/01/10 09:21:08;;;;;;;25.80;4.75;;;;;;;;;;5108394;28;20550;-66
2023/01/10 09:23:34;;;;;;;30.00;4.95;;;;;;;;;;5106669;28;20063;-66
2023/01/10 09:26:01;;;;;;;25.88;4.68;;;;;;;;;;5098815;28;20134;-66
2023/01/10 09:28:28;;;;;;;30.00;5.55;;;;;;;;;;5107037;28;20419;-66
2023/01/10 09:30:54;;;;;;;24.48;5.43;;;;;;;;;;5099448;28;20051;-66
2023/01/10 09:33:20;;;;;;;20.33;3.50;;;;;;;;;;5105848;28;20039;-66
2023/01/10 09:35:46;;;;;;;27.48;4.90;;;;;;;;;;5108648;28;20126;-66
2023/01/10 09:38:15;;;;;;;25.65;4.30;;;;;;;;;;5104951;28;20046;-67
2023/01/10 09:40:54;;;;;;;22.00;3.58;;;;;;;;;;5101477;28;20047;-67
2023/01/10 09:43:33;;;;;;;22.38;4.13;;;;;;;;;;5105200;27;20237;-66
2023/01/10 09:46:04;;;;;;;27.83;4.22;;;;;;;;;;5107137;28;20503;-66
2023/01/10 09:48:36;;;;;;;22.25;4.22;;;;;;;;;;5091973;28;20044;-66
2023/01/10 09:51:02;;;;;;;21.13;4.22;;;;;;;;;;5097130;28;20543;-66
2023/01/10 09:53:32;;;;;;;24.98;5.45;;;;;;;;;;5105359;28;20126;-66
2023/01/10 09:56:00;;;;;;;24.45;5.07;;;;;;;;;;5105842;28;20365;-66
2023/01/10 09:58:28;;;;;;;27.02;4.45;;;;;;;;;;5106683;28;20096;-66
2023/01/10 10:00:57;;;;;;;35.10;5.10;;;;;;;;;;5104625;28;20046;-66
2023/01/10 10:03:32;;;;;;;27.20;4.78;;;;;;;;;;5097079;28;20047;-66
2023/01/10 10:05:58;;;;;;;37.00;4.97;;;;;;;;;;5103528;28;20070;-66
2023/01/10 10:08:24;;;;;;;36.17;5.55;;;;;;;;;;5106495;28;20053;-67
2023/01/10 10:11:09;;;;;;;28.92;5.25;;;;;;;;;;5098407;28;20128;-67
2023/01/10 10:13:39;;;;;;;39.75;5.88;;;;;;;;;;5099938;28;20044;-66
2023/01/10 10:16:05;;;;;;;29.95;4.63;;;;;;;;;;5103861;28;20536;-66
2023/01/10 10:18:53;;;;;;;37.05;5.32;;;;;;;;;;5102821;28;20727;-66
2023/01/10 10:21:30;;;;;;;42.00;6.93;;;;;;;;;;5103540;28;20055;-66
2023/01/10 10:24:08;;;;;;;39.08;6.55;;;;;;;;;;5077488;28;20043;-66
2023/01/10 10:26:36;;;;;;;31.27;5.93;;;;;;;;;;5103335;28;20035;-66
2023/01/10 10:29:12;;;;;;;29.88;4.97;;;;;;;;;;5103645;28;20043;-66
2023/01/10 10:31:53;;;;;;;28.80;5.57;;;;;;;;;;5104056;28;20097;-66
2023/01/10 10:34:35;;;;;;;33.92;6.57;;;;;;;;;;5105051;28;20043;-66
2023/01/10 10:37:07;;;;;;;30.23;5.63;;;;;;;;;;5103546;27;20070;-66
2023/01/10 10:39:42;;;;;;;39.17;5.95;;;;;;;;;;5093074;28;20073;-66
2023/01/10 10:42:11;;;;;;;33.47;5.20;;;;;;;;;;5104908;28;20422;-66
2023/01/10 10:44:44;;;;;;;34.38;5.45;;;;;;;;;;5096266;28;20118;-66
2023/01/10 10:47:14;;;;;;;28.52;5.20;;;;;;;;;;5094642;28;20555;-66
2023/01/10 10:49:46;;;;;;;33.40;7.15;;;;;;;;;;5103379;28;20046;-66
2023/01/10 10:52:19;;;;;;;23.55;5.25;;;;;;;;;;5096507;28;20047;-66
2023/01/10 10:54:45;;;;;;;40.13;7.22;;;;;;;;;;5102233;28;20048;-66
2023/01/10 10:57:12;;;;;;;31.50;5.38;;;;;;;;;;5104071;28;20487;-66
2023/01/10 10:59:38;;;;;;;35.33;5.13;;;;;;;;;;5106619;28;20028;-66
2023/01/10 11:02:17;;;;;;;31.77;4.57;;;;;;;;;;5103252;28;20104;-66
2023/01/10 11:04:43;;;;;;;35.58;6.80;;;;;;;;;;5096794;28;20047;-66
2023/01/10 11:07:14;;;;;;;28.85;5.38;;;;;;;;;;5096585;28;20672;-66
2023/01/10 11:09:43;;;;;;;38.42;7.22;;;;;;;;;;5096110;28;20047;-66
2023/01/10 11:12:13;;;;;;;43.00;5.10;;;;;;;;;;5106523;28;20043;-66
2023/01/10 11:14:41;;;;;;;35.05;6.55;;;;;;;;;;5104555;28;20039;-66
2023/01/10 11:17:22;;;;;;;34.25;5.95;;;;;;;;;;5105793;28;20343;-66
2023/01/10 11:19:57;;;;;;;28.85;4.55;;;;;;;;;;5097057;28;20108;-66
2023/01/10 11:22:24;;;;;;;44.08;6.72;;;;;;;;;;5102779;28;20447;-66
2023/01/10 11:24:55;;;;;;;27.02;6.03;;;;;;;;;;5105340;28;20052;-66
2023/01/10 11:27:23;;;;;;;36.97;6.43;;;;;;;;;;5105850;28;20392;-66
2023/01/10 11:29:51;;;;;;;24.02;5.05;;;;;;;;;;5098119;28;20546;-66
2023/01/10 11:32:18;;;;;;;44.15;6.80;;;;;;;;;;5105380;28;20486;-66
2023/01/10 11:34:52;;;;;;;34.50;6.25;;;;;;;;;;5104955;28;20206;-66
2023/01/10 11:37:23;;;;;;;35.55;6.50;;;;;;;;;;5105198;28;20051;-66
2023/01/10 11:40:06;;;;;;;37.47;5.93;;;;;;;;;;5104456;28;20117;-66
2023/01/10 11:42:33;;;;;;;37.83;5.93;;;;;;;;;;5104371;28;20047;-66
2023/01/10 11:45:19;;;;;;;34.50;7.03;;;;;;;;;;5105116;28;20123;-65
2023/01/10 11:47:45;;;;;;;39.13;7.35;;;;;;;;;;5104189;28;20067;-65
2023/01/10 11:50:11;;;;;;;36.55;7.00;;;;;;;;;;5096567;28;20058;-66
2023/01/10 11:52:43;;;;;;;48.10;8.18;;;;;;;;;;5089785;28;20039;-65
2023/01/10 11:55:09;;;;;;;37.45;7.20;;;;;;;;;;5091423;28;20136;-66
2023/01/10 11:57:35;;;;;;;33.13;7.65;;;;;;;;;;5103425;28;20402;-65
2023/01/10 12:00:06;;;;;;;32.88;7.50;;;;;;;;;;5095350;28;20141;-65
2023/01/10 12:02:34;;;;;;;32.63;7.00;;;;;;;;;;5105198;28;20040;-65
2023/01/10 12:05:03;;;;;;;38.90;8.38;;;;;;;;;;5103781;28;20459;-65
2023/01/10 12:07:29;;;;;;;30.13;7.43;;;;;;;;;;5104028;28;20044;-65
2023/01/10 12:09:57;;;;;;;37.28;7.18;;;;;;;;;;5069223;28;20047;-66
2023/01/10 12:12:24;;;;;;;43.03;7.30;;;;;;;;;;5108829;27;20048;-66
2023/01/10 12:14:51;;;;;;;39.20;7.43;;;;;;;;;;5096770;28;20364;-66
2023/01/10 12:17:21;;;;;;;31.75;7.80;;;;;;;;;;5110585;28;20431;-66
2023/01/10 12:19:47;;;;;;;34.78;7.22;;;;;;;;;;5105856;28;20466;-66
2023/01/10 12:22:15;;;;;;;41.67;8.15;;;;;;;;;;5110135;28;20044;-65
2023/01/10 12:24:43;;;;;;;36.60;7.22;;;;;;;;;;5107564;28;20056;-65
2023/01/10 12:27:12;;;;;;;36.92;9.20;;;;;;;;;;5109743;28;20483;-65
2023/01/10 12:29:42;;;;;;;30.17;7.50;;;;;;;;;;5107193;28;20116;-67
2023/01/10 12:32:16;;;;;;;32.85;6.97;;;;;;;;;;5106637;28;20715;-65
2023/01/10 12:34:48;;;;;;;39.60;7.90;;;;;;;;;;5107341;28;20372;-65
2023/01/10 12:37:20;;;;;;;36.13;8.70;;;;;;;;;;5106486;28;20119;-66
2023/01/10 12:39:51;;;;;;;43.20;9.88;;;;;;;;;;5106041;28;20403;-66
2023/01/10 12:45:25;;;;;;;38.80;7.97;;;;;;;;;;5106701;28;20043;-65
2023/01/10 12:48:02;;;;;;;38.97;8.68;;;;;;;;;;5107524;28;20036;-65
2023/01/10 12:50:33;;;;;;;37.85;8.52;;;;;;;;;;5106419;28;20043;-65
2023/01/10 12:53:03;;;;;;;37.40;8.98;;;;;;;;;;5097838;28;20040;-65
2023/01/10 12:55:30;;;;;;;34.78;8.05;;;;;;;;;;5107274;28;20479;-65
2023/01/10 12:57:59;;;;;;;40.97;8.45;;;;;;;;;;5108173;28;20081;-64
2023/01/10 13:00:28;;;;;;;36.60;8.27;;;;;;;;;;5105700;28;20216;-64
2023/01/10 13:02:55;;;;;;;35.60;7.78;;;;;;;;;;5106927;28;20451;-65
2023/01/10 13:05:23;;;;;;;33.83;7.78;;;;;;;;;;5107996;28;20036;-65
2023/01/10 13:07:51;;;;;;;37.35;9.52;;;;;;;;;;5104092;28;20039;-65
2023/01/10 13:10:20;;;;;;;39.53;7.65;;;;;;;;;;5108725;28;20057;-65
2023/01/10 13:12:51;;;;;;;34.50;9.20;;;;;;;;;;5106528;28;20083;-65
2023/01/10 13:15:20;;;;;;;40.83;9.10;;;;;;;;;;5094170;28;20112;-65
2023/01/10 13:17:49;;;;;;;36.03;7.20;;;;;;;;;;5095483;28;20055;-65
2023/01/10 13:20:16;;;;;;;32.05;8.15;;;;;;;;;;5107093;28;20126;-65
2023/01/10 13:22:43;;;;;;;39.42;7.40;;;;;;;;;;5105367;28;20039;-65
2023/01/10 13:25:20;;;;;;;41.63;7.70;;;;;;;;;;5106625;28;20130;-65
2023/01/10 13:27:51;;;;;;;42.47;8.10;;;;;;;;;;5105950;28;20491;-65
2023/01/10 13:30:32;;;;;;;37.78;6.70;;;;;;;;;;5098488;28;20177;-65
2023/01/10 13:33:07;;;;;;;35.58;7.10;;;;;;;;;;5107778;28;21012;-65
2023/01/10 13:35:41;;;;;;;35.65;8.00;;;;;;;;;;5106969;28;20126;-65
2023/01/10 13:38:17;;;;;;;32.15;6.65;;;;;;;;;;5107558;28;20051;-65
2023/01/10 13:40:55;;;;;;;33.05;6.80;;;;;;;;;;5106667;28;20064;-65
2023/01/10 13:43:32;;;;;;;28.33;6.85;;;;;;;;;;5106154;28;20149;-65
2023/01/10 13:46:14;;;;;;;39.17;6.55;;;;;;;;;;5107636;28;20453;-65
2023/01/10 13:48:41;;;;;;;33.75;6.78;;;;;;;;;;5115429;27;20139;-65
2023/01/10 13:51:14;;;;;;;29.40;5.63;;;;;;;;;;5100189;28;20044;-65
2023/01/10 13:53:43;;;;;;;30.23;5.97;;;;;;;;;;5106543;28;20052;-65
2023/01/10 13:56:30;;;;;;;27.35;5.00;;;;;;;;;;5105987;28;20069;-65
2023/01/10 14:04:28;;;;;;;32.20;6.78;;;;;;;;;;5085091;28;20055;-65
2023/01/10 14:07:02;;;;;;;28.48;5.88;;;;;;;;;;5106863;28;20040;-65
2023/01/10 14:09:32;;;;;;;32.00;7.40;;;;;;;;;;5106336;28;20135;-65
2023/01/10 14:12:00;;;;;;;30.60;6.00;;;;;;;;;;5105454;28;20047;-66
2023/01/10 14:14:29;;;;;;;28.23;5.80;;;;;;;;;;5106807;28;20526;-65
2023/01/10 14:16:57;;;;;;;30.15;6.00;;;;;;;;;;5105872;28;20036;-65
2023/01/10 14:19:27;;;;;;;33.95;5.05;;;;;;;;;;5107553;28;20048;-66
2023/01/10 14:21:54;;;;;;;36.35;5.65;;;;;;;;;;5104690;28;20164;-65
2023/01/10 14:24:24;;;;;;;29.20;4.80;;;;;;;;;;5097646;28;20133;-66
2023/01/10 14:26:51;;;;;;;28.10;5.85;;;;;;;;;;5106937;28;20089;-65
2023/01/10 14:29:19;;;;;;;28.42;5.95;;;;;;;;;;5106076;28;20035;-66
2023/01/10 14:31:47;;;;;;;24.58;5.40;;;;;;;;;;5103265;28;20051;-66
2023/01/10 14:34:19;;;;;;;29.08;5.97;;;;;;;;;;5107032;28;20189;-66
2023/01/10 14:36:51;;;;;;;24.05;6.43;;;;;;;;;;5106650;28;20059;-66
2023/01/10 14:39:18;;;;;;;25.98;5.30;;;;;;;;;;5096299;28;20040;-66
2023/01/10 14:41:46;;;;;;;27.48;5.15;;;;;;;;;;5105358;28;20043;-66
2023/01/10 14:44:22;;;;;;;29.48;5.25;;;;;;;;;;5105682;28;20054;-66
2023/01/10 14:46:50;;;;;;;27.77;5.22;;;;;;;;;;5105051;28;20081;-66
2023/01/10 14:49:25;;;;;;;34.42;5.05;;;;;;;;;;5095426;28;20040;-66
2023/01/10 14:51:54;;;;;;;30.42;6.80;;;;;;;;;;5104734;28;20516;-65
2023/01/10 14:54:28;;;;;;;26.45;5.28;;;;;;;;;;5105130;28;20055;-66
2023/01/10 14:56:56;;;;;;;26.38;5.30;;;;;;;;;;5095540;28;20054;-65